Time;durP1;ratioP1;P1;durP2;ratioP2;P2;SDS_P1;SDS_P2;PMS_P1;PMS_P2;Temp;Humidity;BMP_temperature;BMP_pressure;BME280_temperature;BME280_humidity;BME280_pressure;Samples;Min_cycle;Max_cycle;Signal;HPM_P1;HPM_P2
2023/10/22 00:01:26;;;;;;;0.00;0.00;;;;;;;8.87;77.63;99099.88;7366254;19;20022;-59
2023/10/22 00:03:51;;;;;;;0.10;0.10;;;;;;;8.84;77.73;99106.03;7363841;19;20014;-59
2023/10/22 00:06:17;;;;;;;0.08;0.08;;;;;;;8.74;77.82;99094.31;7367238;19;20007;-58
2023/10/22 00:08:42;;;;;;;0.00;0.00;;;;;;;8.78;78.03;99105.47;7356863;19;20011;-59
2023/10/22 00:11:07;;;;;;;0.10;0.10;;;;;;;8.78;78.21;99116.72;7359918;19;20014;-59
2023/10/22 00:13:33;;;;;;;0.00;0.00;;;;;;;8.76;77.98;99122.88;7361296;19;20042;-59
2023/10/22 00:15:59;;;;;;;0.00;0.00;;;;;;;8.73;77.99;99123.00;7358202;19;20023;-59
2023/10/22 00:18:24;;;;;;;0.08;0.08;;;;;;;8.69;78.05;99116.22;7356326;19;20481;-59
2023/10/22 00:20:50;;;;;;;0.08;0.08;;;;;;;8.68;77.96;99122.34;7364742;19;20027;-58
2023/10/22 00:23:15;;;;;;;0.00;0.00;;;;;;;8.65;77.82;99123.31;7363683;19;20547;-59
2023/10/22 00:25:40;;;;;;;0.10;0.10;;;;;;;8.62;77.76;99120.84;7367472;19;20077;-59
2023/10/22 00:28:06;;;;;;;0.05;0.05;;;;;;;8.53;77.66;99110.78;7361877;19;20026;-59
2023/10/22 00:30:31;;;;;;;0.00;0.00;;;;;;;8.59;77.52;99131.38;7362329;19;20025;-59
2023/10/22 00:32:57;;;;;;;0.08;0.08;;;;;;;8.55;77.54;99124.59;7358308;19;20014;-59
2023/10/22 00:35:22;;;;;;;0.00;0.00;;;;;;;8.48;77.62;99126.59;7365068;19;20006;-59
2023/10/22 00:37:48;;;;;;;0.00;0.00;;;;;;;8.53;77.25;99131.63;7359889;19;20094;-59
2023/10/22 00:40:16;;;;;;;0.00;0.00;;;;;;;8.42;77.18;99124.22;7366129;19;20007;-59
2023/10/22 00:42:41;;;;;;;0.10;0.10;;;;;;;8.47;76.97;99135.31;7361460;19;20042;-59
2023/10/22 00:45:09;;;;;;;0.00;0.00;;;;;;;8.46;77.42;99128.38;7364196;19;21013;-58
2023/10/22 00:47:36;;;;;;;0.00;0.00;;;;;;;8.45;77.49;99134.50;7362806;19;20585;-59
2023/10/22 00:50:02;;;;;;;0.00;0.00;;;;;;;8.43;77.02;99136.31;7365357;19;20015;-59
2023/10/22 00:52:28;;;;;;;0.00;0.00;;;;;;;8.40;77.11;99136.44;7362246;19;19998;-59
2023/10/22 00:54:55;;;;;;;0.03;0.03;;;;;;;8.41;76.94;99147.69;7361246;19;20010;-59
2023/10/22 00:57:22;;;;;;;0.05;0.05;;;;;;;8.24;76.95;99119.69;7355877;19;20721;-58
2023/10/22 00:59:47;;;;;;;0.10;0.10;;;;;;;8.35;77.03;99143.53;7360103;19;20014;-59
2023/10/22 01:02:13;;;;;;;0.10;0.10;;;;;;;8.32;76.71;99143.66;7360558;19;20006;-59
2023/10/22 01:04:38;;;;;;;0.00;0.00;;;;;;;8.31;77.12;99152.34;7356921;19;20018;-59
2023/10/22 01:07:05;;;;;;;0.00;0.00;;;;;;;8.31;77.01;99157.56;7361946;19;20376;-59
2023/10/22 01:09:31;;;;;;;0.10;0.10;;;;;;;8.28;76.72;99152.50;7364759;19;20038;-59
2023/10/22 01:12:07;;;;;;;0.10;0.10;;;;;;;8.28;76.63;99158.53;7362210;19;20006;-59
2023/10/22 01:14:32;;;;;;;0.10;0.10;;;;;;;8.22;76.70;99143.16;7361365;19;20035;-59
2023/10/22 01:16:58;;;;;;;0.10;0.10;;;;;;;8.21;76.83;99140.59;7357104;19;20015;-60
2023/10/22 01:19:24;;;;;;;0.00;0.00;;;;;;;8.18;76.41;99146.78;7357089;19;20531;-58
2023/10/22 01:21:49;;;;;;;0.10;0.10;;;;;;;8.21;76.52;99151.88;7361208;19;20015;-59
2023/10/22 01:24:15;;;;;;;0.10;0.10;;;;;;;8.10;77.10;99140.16;7365972;19;20484;-59
2023/10/22 01:26:44;;;;;;;0.00;0.00;;;;;;;8.19;76.83;99165.84;7359127;19;20015;-59
2023/10/22 01:29:12;;;;;;;0.10;0.10;;;;;;;8.17;76.91;99159.84;7362849;19;20022;-59
2023/10/22 01:31:38;;;;;;;0.00;0.00;;;;;;;8.10;76.75;99156.63;7364333;19;20006;-59
2023/10/22 01:34:04;;;;;;;0.10;0.10;;;;;;;8.07;76.51;99149.78;7365752;19;20011;-59
2023/10/22 01:36:29;;;;;;;0.08;0.08;;;;;;;8.06;76.77;99153.31;7364860;19;20917;-59
2023/10/22 01:38:55;;;;;;;0.00;0.00;;;;;;;8.10;76.97;99163.56;7374484;19;20774;-59
2023/10/22 01:41:20;;;;;;;0.10;0.10;;;;;;;8.10;77.07;99168.75;7365734;19;20036;-59
2023/10/22 01:43:46;;;;;;;0.10;0.10;;;;;;;8.06;76.83;99168.06;7372944;19;20007;-59
2023/10/22 01:46:11;;;;;;;0.00;0.00;;;;;;;8.06;76.38;99179.31;7370487;19;20014;-59
2023/10/22 01:48:38;;;;;;;0.10;0.10;;;;;;;7.93;76.67;99152.03;7364186;19;20006;-59
2023/10/22 01:51:04;;;;;;;0.10;0.10;;;;;;;8.04;76.47;99181.09;7368067;19;20009;-59
2023/10/22 01:53:29;;;;;;;0.00;0.00;;;;;;;8.03;76.00;99178.56;7369378;19;20022;-60
2023/10/22 01:55:55;;;;;;;0.10;0.10;;;;;;;8.00;76.66;99179.50;7372642;19;20044;-58
2023/10/22 01:58:20;;;;;;;0.10;0.10;;;;;;;7.79;76.52;99149.94;7356972;19;20327;-58
2023/10/22 02:00:46;;;;;;;0.10;0.10;;;;;;;7.95;76.44;99176.22;7365380;19;20406;-59
2023/10/22 02:03:11;;;;;;;0.00;0.00;;;;;;;7.96;76.51;99177.94;7368622;19;20018;-59
2023/10/22 02:05:36;;;;;;;0.10;0.10;;;;;;;7.94;76.89;99181.47;7365247;19;20003;-59
2023/10/22 02:08:02;;;;;;;0.00;0.00;;;;;;;7.92;76.67;99178.94;7367653;19;20017;-59
2023/10/22 02:10:28;;;;;;;0.00;0.00;;;;;;;7.91;76.94;99187.66;7368946;19;20015;-59
2023/10/22 02:12:53;;;;;;;0.00;0.00;;;;;;;7.92;76.91;99196.28;7361335;19;20501;-59
2023/10/22 02:15:19;;;;;;;0.00;0.00;;;;;;;7.78;76.67;99187.22;7365304;19;20014;-59
2023/10/22 02:17:44;;;;;;;0.00;0.00;;;;;;;7.88;77.08;99208.53;7364188;19;20099;-59
2023/10/22 02:20:10;;;;;;;0.00;0.00;;;;;;;7.83;77.35;99197.47;7369269;19;20411;-57
2023/10/22 02:22:39;;;;;;;0.10;0.10;;;;;;;7.85;76.83;99200.84;7368427;19;20018;-59
2023/10/22 02:25:06;;;;;;;0.10;0.10;;;;;;;7.69;77.35;99186.72;7367844;19;20030;-58
2023/10/22 02:27:32;;;;;;;0.00;0.00;;;;;;;7.81;76.94;99214.88;7365274;19;20042;-59
2023/10/22 02:29:58;;;;;;;0.00;0.00;;;;;;;7.80;77.21;99213.16;7364954;19;20010;-59
2023/10/22 02:32:23;;;;;;;0.10;0.10;;;;;;;7.69;76.75;99194.50;7366768;19;20018;-58
2023/10/22 02:34:48;;;;;;;0.10;0.10;;;;;;;7.78;76.91;99223.63;7366431;19;20015;-59
2023/10/22 02:37:14;;;;;;;0.10;0.10;;;;;;;7.78;76.58;99225.38;7365198;19;20504;-59
2023/10/22 02:39:40;;;;;;;0.10;0.10;;;;;;;7.77;77.03;99231.47;7362704;19;20023;-59
2023/10/22 02:42:05;;;;;;;0.10;0.10;;;;;;;7.73;77.11;99227.28;7362688;19;20003;-58
2023/10/22 02:44:31;;;;;;;0.10;0.10;;;;;;;7.70;77.16;99220.41;7367927;19;20031;-58
2023/10/22 02:46:58;;;;;;;0.03;0.03;;;;;;;7.57;76.68;99207.94;7365905;19;20381;-59
2023/10/22 02:49:24;;;;;;;;;;;;;;;7.75;76.31;99235.84;7368780;19;20014;-59
2023/10/22 02:51:50;;;;;;;0.00;0.00;;;;;;;7.60;76.70;99213.00;7363526;19;19934;-59
2023/10/22 02:54:15;;;;;;;0.00;0.00;;;;;;;7.69;76.73;99238.66;7364991;19;20015;-59
2023/10/22 02:56:40;;;;;;;0.05;0.05;;;;;;;7.52;76.40;99221.06;7363955;19;20070;-59
2023/10/22 02:59:06;;;;;;;0.00;0.00;;;;;;;7.67;76.93;99253.47;7368386;19;20439;-59
2023/10/22 03:01:31;;;;;;;0.10;0.10;;;;;;;7.62;76.99;99250.19;7366222;19;20109;-59
2023/10/22 03:03:56;;;;;;;0.10;0.10;;;;;;;7.53;76.57;99243.53;7364144;19;20074;-58
2023/10/22 03:06:22;;;;;;;0.00;0.00;;;;;;;7.63;76.88;99259.66;7364686;19;20043;-59
2023/10/22 03:08:47;;;;;;;0.00;0.00;;;;;;;7.61;76.96;99262.31;7365519;19;20002;-59
2023/10/22 03:11:19;;;;;;;0.10;0.10;;;;;;;7.61;77.02;99262.31;7360605;19;20034;-59
2023/10/22 03:13:45;;;;;;;0.10;0.10;;;;;;;7.48;77.42;99251.47;7370399;19;20018;-59
2023/10/22 03:16:15;;;;;;;0.10;0.10;;;;;;;7.59;77.22;99269.31;7362057;19;20035;-59
2023/10/22 03:18:42;;;;;;;0.00;0.00;;;;;;;7.58;77.20;99275.41;7328114;19;20068;-59
2023/10/22 03:21:11;;;;;;;0.10;0.10;;;;;;;7.53;77.46;99262.56;7364618;19;20851;-59
2023/10/22 03:23:43;;;;;;;0.00;0.00;;;;;;;7.53;77.05;99278.16;7365535;19;20876;-59
2023/10/22 03:26:14;;;;;;;0.10;0.10;;;;;;;7.51;77.14;99272.16;7362700;19;20022;-59
2023/10/22 03:28:40;;;;;;;0.10;0.10;;;;;;;7.54;77.19;99279.84;7367375;19;20019;-59
2023/10/22 03:31:06;;;;;;;0.00;0.00;;;;;;;7.51;77.23;99285.16;7364820;19;20472;-58
2023/10/22 03:33:32;;;;;;;0.00;0.00;;;;;;;7.45;76.86;99274.97;7363582;19;20040;-59
2023/10/22 03:35:58;;;;;;;0.00;0.00;;;;;;;7.51;77.12;99289.50;7364195;19;20044;-58
2023/10/22 03:38:24;;;;;;;0.00;0.00;;;;;;;7.49;76.97;99291.28;7364168;19;20030;-59
2023/10/22 03:41:04;;;;;;;0.00;0.00;;;;;;;7.50;77.33;99291.25;7360868;19;20007;-59
2023/10/22 03:43:30;;;;;;;0.10;0.10;;;;;;;7.47;77.08;99299.13;7366753;19;20011;-59
2023/10/22 03:45:56;;;;;;;0.05;0.05;;;;;;;7.47;77.19;99298.28;7359788;19;19998;-59
2023/10/22 03:48:22;;;;;;;0.00;0.00;;;;;;;7.46;77.10;99307.00;7358088;19;20038;-58
2023/10/22 03:50:48;;;;;;;0.00;0.00;;;;;;;7.45;77.48;99302.66;7366235;19;20018;-58
2023/10/22 03:53:13;;;;;;;0.00;0.00;;;;;;;7.45;77.47;99308.75;7364460;19;20734;-59
2023/10/22 03:55:39;;;;;;;0.00;0.00;;;;;;;7.44;77.23;99304.41;7363102;19;20022;-59
2023/10/22 03:58:04;;;;;;;0.00;0.00;;;;;;;7.42;76.95;99306.22;7360856;19;20015;-58
2023/10/22 04:00:30;;;;;;;0.00;0.00;;;;;;;7.25;77.31;99287.75;7363635;19;20300;-58
2023/10/22 04:02:56;;;;;;;0.00;0.00;;;;;;;7.37;77.58;99313.31;7365028;19;20014;-59
2023/10/22 04:05:22;;;;;;;0.00;0.00;;;;;;;7.42;77.51;99321.81;7362941;19;20035;-59
2023/10/22 04:07:49;;;;;;;0.00;0.00;;;;;;;7.42;77.74;99324.41;7365737;19;20732;-59
2023/10/22 04:10:15;;;;;;;0.10;0.10;;;;;;;7.38;77.41;99319.38;7375391;19;20825;-59
2023/10/22 04:12:40;;;;;;;0.10;0.10;;;;;;;7.27;77.50;99314.50;7363338;19;20018;-59
2023/10/22 04:15:06;;;;;;;0.10;0.10;;;;;;;7.40;77.79;99330.53;7362401;19;20024;-60
2023/10/22 04:17:32;;;;;;;0.00;0.00;;;;;;;7.29;77.45;99323.09;7357719;19;20833;-58
2023/10/22 04:19:57;;;;;;;0.10;0.10;;;;;;;7.39;77.31;99334.03;7361495;19;20019;-59
2023/10/22 04:22:23;;;;;;;0.10;0.10;;;;;;;7.37;77.55;99344.47;7361495;19;20006;-58
2023/10/22 04:24:48;;;;;;;0.10;0.10;;;;;;;7.38;77.18;99346.19;7362678;19;20011;-59
2023/10/22 04:27:13;;;;;;;0.00;0.00;;;;;;;7.38;77.66;99351.38;7362446;19;20006;-59
2023/10/22 04:29:39;;;;;;;0.00;0.00;;;;;;;7.39;77.25;99349.63;7359692;19;20078;-59
2023/10/22 04:32:05;;;;;;;0.10;0.10;;;;;;;7.38;77.36;99348.78;7361041;19;20026;-58
2023/10/22 04:34:32;;;;;;;0.00;0.00;;;;;;;7.38;77.53;99346.19;7364806;19;20014;-59
2023/10/22 04:36:58;;;;;;;0.10;0.10;;;;;;;7.36;77.59;99348.00;7362028;19;20011;-59
2023/10/22 04:39:24;;;;;;;0.05;0.05;;;;;;;6.99;77.68;99289.41;7363787;19;20007;-59
2023/10/22 04:41:50;;;;;;;0.00;0.00;;;;;;;7.29;77.71;99336.91;7364774;19;20015;-59
2023/10/22 04:44:16;;;;;;;0.10;0.10;;;;;;;7.36;77.74;99358.38;7360279;19;20041;-59
2023/10/22 04:46:41;;;;;;;0.00;0.00;;;;;;;7.25;77.68;99331.91;7356943;19;20023;-58
2023/10/22 04:49:06;;;;;;;0.00;0.00;;;;;;;7.15;77.85;99312.31;7363460;19;20794;-59
2023/10/22 04:51:32;;;;;;;0.10;0.10;;;;;;;7.09;77.53;99313.31;7363611;19;20010;-59
2023/10/22 04:53:57;;;;;;;0.00;0.00;;;;;;;7.36;77.38;99355.78;7362976;19;20006;-59
2023/10/22 04:56:23;;;;;;;0.10;0.10;;;;;;;7.36;77.63;99367.91;7362871;19;20502;-58
2023/10/22 04:58:48;;;;;;;0.05;0.05;;;;;;;7.35;77.55;99361.88;7362830;19;20498;-59
2023/10/22 05:01:14;;;;;;;0.00;0.00;;;;;;;7.29;77.39;99362.03;7362811;19;20020;-59
2023/10/22 05:03:39;;;;;;;0.10;0.10;;;;;;;7.33;77.64;99368.84;7357633;19;20039;-59
2023/10/22 05:06:06;;;;;;;0.03;0.03;;;;;;;7.32;77.62;99367.16;7363332;19;21161;-59
2023/10/22 05:08:36;;;;;;;0.00;0.00;;;;;;;7.32;77.76;99372.34;7361459;19;20035;-59
2023/10/22 05:11:05;;;;;;;0.10;0.10;;;;;;;7.31;78.02;99373.25;7350862;19;20010;-59
2023/10/22 05:13:31;;;;;;;0.00;0.00;;;;;;;7.31;77.59;99375.00;7363393;19;20835;-59
2023/10/22 05:15:57;;;;;;;0.03;0.03;;;;;;;7.31;77.60;99375.00;7360433;19;20006;-59
2023/10/22 05:18:25;;;;;;;0.10;0.10;;;;;;;7.30;77.98;99379.34;7359762;19;20039;-59
2023/10/22 05:20:51;;;;;;;0.00;0.00;;;;;;;7.29;77.57;99388.00;7363692;19;20331;-59
2023/10/22 05:23:16;;;;;;;0.00;0.00;;;;;;;7.26;78.05;99378.56;7361789;19;20495;-58
2023/10/22 05:25:42;;;;;;;0.00;0.00;;;;;;;7.28;77.62;99383.72;7358221;19;20027;-59
2023/10/22 05:28:07;;;;;;;0.10;0.10;;;;;;;6.86;77.73;99316.63;7369478;19;20014;-58
2023/10/22 05:30:32;;;;;;;0.08;0.08;;;;;;;7.27;77.95;99387.22;7357110;19;20002;-59
2023/10/22 05:32:59;;;;;;;0.10;0.10;;;;;;;7.26;77.81;99390.72;7363755;19;20385;-59
2023/10/22 05:35:24;;;;;;;0.10;0.10;;;;;;;7.24;78.11;99400.28;7361368;19;20055;-59
2023/10/22 05:37:51;;;;;;;0.10;0.10;;;;;;;7.22;77.87;99399.47;7360757;19;20086;-59
2023/10/22 05:40:17;;;;;;;0.10;0.10;;;;;;;7.22;77.82;99408.13;7355010;19;20643;-59
2023/10/22 05:42:43;;;;;;;0.08;0.08;;;;;;;7.21;77.95;99411.63;7362306;19;20876;-57
2023/10/22 05:45:09;;;;;;;0.00;0.00;;;;;;;7.15;78.02;99409.22;7358123;19;20024;-59
2023/10/22 05:47:35;;;;;;;0.03;0.03;;;;;;;7.17;78.18;99416.94;7344804;19;20743;-59
2023/10/22 05:50:00;;;;;;;0.10;0.10;;;;;;;7.11;77.83;99407.59;7360693;19;20376;-59
2023/10/22 05:52:26;;;;;;;0.10;0.10;;;;;;;6.98;78.14;99394.09;7363126;19;20608;-60
2023/10/22 05:54:52;;;;;;;0.00;0.00;;;;;;;7.11;77.79;99419.72;7359967;19;20056;-59
2023/10/22 05:57:20;;;;;;;0.10;0.10;;;;;;;6.94;78.31;99405.47;7361883;19;20014;-59
2023/10/22 05:59:45;;;;;;;0.00;0.00;;;;;;;7.07;77.76;99424.16;7357557;19;20021;-59
2023/10/22 06:02:11;;;;;;;0.10;0.10;;;;;;;7.02;78.08;99432.06;7360603;19;20002;-59
2023/10/22 06:04:36;;;;;;;0.10;0.10;;;;;;;7.02;78.00;99436.41;7360587;19;20013;-59
2023/10/22 06:07:01;;;;;;;0.10;0.10;;;;;;;6.98;78.34;99432.19;7367737;19;19999;-59
2023/10/22 06:09:27;;;;;;;0.00;0.00;;;;;;;6.98;78.25;99440.81;7361967;19;20734;-57
2023/10/22 06:11:52;;;;;;;0.08;0.08;;;;;;;6.96;78.11;99442.63;7355847;19;20018;-59
2023/10/22 06:14:18;;;;;;;0.10;0.10;;;;;;;6.85;78.15;99434.28;7357283;19;20014;-59
2023/10/22 06:16:43;;;;;;;0.10;0.10;;;;;;;6.93;78.09;99445.28;7367283;19;20023;-59
2023/10/22 06:19:08;;;;;;;0.10;0.10;;;;;;;6.90;78.14;99445.41;7359786;19;20002;-59
2023/10/22 06:21:34;;;;;;;0.10;0.10;;;;;;;6.89;78.00;99440.22;7368938;19;20010;-59
2023/10/22 06:24:00;;;;;;;0.00;0.00;;;;;;;6.85;78.28;99449.84;7366791;19;20014;-59
2023/10/22 06:26:26;;;;;;;0.10;0.10;;;;;;;6.83;78.22;99451.63;7366215;19;20010;-59
2023/10/22 06:28:51;;;;;;;0.10;0.10;;;;;;;6.85;78.49;99454.19;7365051;19;20010;-59
2023/10/22 06:31:17;;;;;;;0.00;0.00;;;;;;;6.83;78.50;99456.81;7368526;19;20013;-59
2023/10/22 06:33:43;;;;;;;0.00;0.00;;;;;;;6.65;77.96;99428.81;7367382;19;19995;-59
2023/10/22 06:36:15;;;;;;;0.00;0.00;;;;;;;6.82;77.79;99452.53;7363293;19;20016;-59
2023/10/22 06:38:42;;;;;;;0.10;0.10;;;;;;;6.81;78.39;99458.63;7359861;19;20015;-59
2023/10/22 06:41:19;;;;;;;0.00;0.00;;;;;;;6.82;77.89;99470.69;7374316;19;20349;-59
2023/10/22 06:43:45;;;;;;;0.00;0.00;;;;;;;6.77;78.26;99462.19;7363292;19;20367;-57
2023/10/22 06:46:11;;;;;;;0.00;0.00;;;;;;;6.64;78.46;99450.41;7365949;19;20010;-59
2023/10/22 06:48:37;;;;;;;0.00;0.00;;;;;;;6.44;78.12;99428.47;7360086;19;20007;-59
2023/10/22 06:51:03;;;;;;;0.00;0.00;;;;;;;6.73;78.10;99476.13;7369785;19;20710;-59
2023/10/22 06:53:29;;;;;;;0.10;0.10;;;;;;;6.74;78.17;99478.69;7366317;19;20014;-59
2023/10/22 06:55:55;;;;;;;0.10;0.10;;;;;;;6.77;78.63;99490.72;7366780;19;20009;-59
2023/10/22 06:58:20;;;;;;;0.00;0.00;;;;;;;6.76;78.49;99492.47;7362339;19;20355;-59
2023/10/22 07:00:46;;;;;;;0.00;0.00;;;;;;;6.76;78.25;99497.66;7365480;19;20010;-58
2023/10/22 07:03:11;;;;;;;0.10;0.10;;;;;;;6.57;78.71;99469.63;7364840;19;20019;-59
2023/10/22 07:05:36;;;;;;;0.10;0.10;;;;;;;6.46;78.29;99456.97;7369233;19;20593;-59
2023/10/22 07:08:02;;;;;;;0.00;0.00;;;;;;;6.75;78.42;99502.91;7363720;19;20011;-59
2023/10/22 07:10:27;;;;;;;0.00;0.00;;;;;;;6.70;78.35;99495.22;7365632;19;20604;-59
2023/10/22 07:12:57;;;;;;;0.10;0.10;;;;;;;6.74;78.43;99498.56;7362723;19;20007;-59
2023/10/22 07:15:24;;;;;;;0.00;0.00;;;;;;;6.70;78.46;99502.16;7362950;19;20757;-57
2023/10/22 07:17:51;;;;;;;0.10;0.10;;;;;;;6.73;78.16;99512.44;7363875;19;20018;-58
2023/10/22 07:20:17;;;;;;;0.00;0.00;;;;;;;6.59;78.42;99493.78;7372118;19;20018;-59
2023/10/22 07:22:42;;;;;;;0.10;0.10;;;;;;;6.62;78.33;99498.91;7373894;19;20018;-59
2023/10/22 07:25:08;;;;;;;0.03;0.03;;;;;;;6.62;78.32;99514.47;7371393;19;20498;-59
2023/10/22 07:27:33;;;;;;;0.03;0.03;;;;;;;6.74;78.38;99534.88;7368386;19;20036;-59
2023/10/22 07:29:58;;;;;;;0.00;0.00;;;;;;;6.74;78.71;99545.28;7365471;19;20722;-59
2023/10/22 07:32:24;;;;;;;0.10;0.10;;;;;;;6.76;78.59;99540.91;7367855;19;20053;-59
2023/10/22 07:34:49;;;;;;;0.05;0.05;;;;;;;6.62;78.42;99517.06;7373136;19;20030;-59
2023/10/22 07:37:14;;;;;;;0.08;0.08;;;;;;;6.66;78.39;99531.66;7370896;19;20003;-58
2023/10/22 07:39:40;;;;;;;0.10;0.10;;;;;;;6.75;78.83;99545.25;7368382;19;20834;-59
2023/10/22 07:42:05;;;;;;;0.10;0.10;;;;;;;6.79;78.37;99553.78;7361775;19;20026;-59
2023/10/22 07:44:31;;;;;;;0.10;0.10;;;;;;;6.83;78.76;99565.78;7367412;19;20490;-59
2023/10/22 07:46:56;;;;;;;0.10;0.10;;;;;;;6.76;78.75;99551.28;7361242;19;20018;-59
2023/10/22 07:49:21;;;;;;;0.10;0.10;;;;;;;6.82;78.57;99566.69;7369688;19;20022;-59
2023/10/22 07:51:47;;;;;;;0.10;0.10;;;;;;;6.84;78.84;99567.50;7360950;19;20511;-59
2023/10/22 07:54:12;;;;;;;0.10;0.10;;;;;;;6.89;78.89;99580.34;7366026;19;20009;-59
2023/10/22 07:56:37;;;;;;;0.00;0.00;;;;;;;6.80;78.69;99555.50;7362677;19;20019;-58
2023/10/22 07:59:03;;;;;;;0.00;0.00;;;;;;;6.81;78.81;99558.97;7364414;19;20003;-59
2023/10/22 08:01:29;;;;;;;0.10;0.10;;;;;;;6.82;79.15;99569.28;7360572;19;20402;-59
2023/10/22 08:03:54;;;;;;;0.10;0.10;;;;;;;7.00;78.89;99584.41;7362685;19;20010;-59
2023/10/22 08:06:19;;;;;;;0.10;0.10;;;;;;;7.11;79.09;99591.06;7359929;19;20014;-58
2023/10/22 08:08:45;;;;;;;0.10;0.10;;;;;;;7.24;79.51;99595.00;7363770;19;20015;-59
2023/10/22 08:11:10;;;;;;;0.00;0.00;;;;;;;7.37;79.12;99599.00;7361428;19;20007;-59
2023/10/22 08:13:36;;;;;;;0.10;0.10;;;;;;;7.48;78.92;99586.56;7361628;19;20010;-59
2023/10/22 08:16:03;;;;;;;0.10;0.10;;;;;;;7.77;78.90;99606.53;7365187;19;20007;-59
2023/10/22 08:18:28;;;;;;;0.00;0.00;;;;;;;7.96;78.97;99604.25;7361414;19;20469;-59
2023/10/22 08:20:53;;;;;;;0.00;0.00;;;;;;;8.17;78.19;99614.91;7359098;19;20014;-59
2023/10/22 08:23:19;;;;;;;0.10;0.10;;;;;;;8.35;78.09;99611.72;7363944;19;20812;-59
2023/10/22 08:25:51;;;;;;;0.10;0.10;;;;;;;8.64;78.26;99623.00;7369710;19;20017;-59
2023/10/22 08:28:17;;;;;;;0.10;0.10;;;;;;;8.80;77.70;99624.19;7364448;19;20002;-60
2023/10/22 08:30:49;;;;;;;0.10;0.10;;;;;;;9.06;77.91;99626.78;7363311;19;20018;-60
2023/10/22 08:33:15;;;;;;;0.10;0.10;;;;;;;9.23;76.72;99622.78;7363958;19;20827;-60
2023/10/22 08:35:41;;;;;;;0.10;0.10;;;;;;;9.44;76.53;99635.06;7362700;19;20010;-59
2023/10/22 08:38:06;;;;;;;0.10;0.10;;;;;;;9.66;76.71;99627.31;7361340;19;20006;-59
2023/10/22 08:40:37;;;;;;;0.10;0.10;;;;;;;9.93;75.84;99635.03;7357538;19;20015;-59
2023/10/22 08:43:08;;;;;;;0.00;0.00;;;;;;;10.13;75.71;99628.16;7366108;19;20777;-59
2023/10/22 08:45:34;;;;;;;0.10;0.10;;;;;;;10.30;75.17;99629.31;7363146;19;20003;-59
2023/10/22 08:48:04;;;;;;;0.10;0.10;;;;;;;10.59;75.36;99631.66;7359921;19;20017;-60
2023/10/22 08:50:30;;;;;;;0.00;0.00;;;;;;;10.78;74.56;99633.50;7364508;19;20014;-60
2023/10/22 08:52:57;;;;;;;0.10;0.10;;;;;;;11.00;74.11;99639.56;7361629;19;20099;-59
2023/10/22 08:55:26;;;;;;;0.10;0.10;;;;;;;11.22;73.26;99641.25;7361431;19;20524;-59
2023/10/22 08:57:51;;;;;;;0.10;0.10;;;;;;;11.41;73.34;99642.19;7359014;19;20010;-60
2023/10/22 09:00:18;;;;;;;0.10;0.10;;;;;;;11.61;73.21;99647.41;7366381;19;20018;-59
2023/10/22 09:02:43;;;;;;;0.10;0.10;;;;;;;11.76;72.49;99648.50;7365399;19;20022;-60
2023/10/22 09:05:10;;;;;;;0.08;0.08;;;;;;;11.94;71.89;99652.06;7362229;19;20383;-60
2023/10/22 09:07:50;;;;;;;0.10;0.10;;;;;;;12.25;73.64;99650.66;7364775;19;20044;-60
2023/10/22 09:10:26;;;;;;;0.10;0.10;;;;;;;12.40;72.79;99642.09;7358319;19;20010;-59
2023/10/22 09:12:53;;;;;;;0.00;0.00;;;;;;;12.58;71.19;99649.09;7361410;19;20010;-59
2023/10/22 09:15:18;;;;;;;0.03;0.03;;;;;;;12.80;71.08;99648.06;7359037;19;20018;-60
2023/10/22 09:17:43;;;;;;;0.10;0.10;;;;;;;13.00;70.10;99650.53;7359532;19;20018;-60
2023/10/22 09:20:22;;;;;;;0.10;0.10;;;;;;;13.20;71.75;99642.53;7358346;19;20026;-59
2023/10/22 09:22:48;;;;;;;0.10;0.10;;;;;;;13.46;70.17;99664.00;7359515;19;20018;-60
2023/10/22 09:25:14;;;;;;;0.10;0.10;;;;;;;13.67;69.36;99667.28;7369052;19;20838;-60
2023/10/22 09:27:40;;;;;;;0.10;0.10;;;;;;;13.87;69.37;99663.63;7333247;19;20002;-60
2023/10/22 09:30:06;;;;;;;0.10;0.10;;;;;;;14.09;68.35;99674.69;7351455;19;20475;-59
2023/10/22 09:32:32;;;;;;;0.10;0.10;;;;;;;14.29;67.98;99676.22;7360111;19;20482;-59
2023/10/22 09:35:18;;;;;;;0.10;0.10;;;;;;;14.68;71.13;99683.72;7362932;19;20014;-59
2023/10/22 09:37:50;;;;;;;0.10;0.10;;;;;;;14.89;69.60;99683.44;7354521;19;20052;-60
2023/10/22 09:40:22;;;;;;;0.10;0.10;;;;;;;15.11;68.90;99681.31;7361374;19;20014;-59
2023/10/22 09:42:49;;;;;;;0.10;0.10;;;;;;;15.22;66.94;99689.41;7356961;19;20018;-60
2023/10/22 09:45:15;;;;;;;0.10;0.10;;;;;;;15.43;66.59;99691.72;7360405;19;20011;-59
2023/10/22 09:47:40;;;;;;;0.10;0.10;;;;;;;15.65;66.46;99697.44;7357052;19;20355;-60
2023/10/22 09:50:08;;;;;;;0.10;0.10;;;;;;;15.93;66.40;99701.91;7360378;19;20015;-59
2023/10/22 09:52:39;;;;;;;0.10;0.10;;;;;;;16.13;66.01;99694.56;7369062;19;20010;-60
2023/10/22 09:55:10;;;;;;;0.13;0.13;;;;;;;16.30;65.72;99691.72;7365312;19;20014;-59
2023/10/22 09:57:37;;;;;;;0.15;0.15;;;;;;;16.48;64.67;99697.66;7353712;19;20742;-60
2023/10/22 10:00:12;;;;;;;0.10;0.10;;;;;;;16.68;64.98;99704.28;7357797;19;20369;-60
2023/10/22 10:02:39;;;;;;;0.20;0.20;;;;;;;16.82;64.53;99691.91;7353788;19;20495;-59
2023/10/22 10:05:06;;;;;;;0.10;0.10;;;;;;;17.08;64.08;99707.84;7346460;19;20017;-60
2023/10/22 10:07:32;;;;;;;0.13;0.13;;;;;;;17.25;63.80;99698.84;7347203;19;20036;-60
2023/10/22 10:09:59;;;;;;;0.10;0.10;;;;;;;17.47;63.50;99708.78;7360283;19;20078;-60
2023/10/22 10:12:28;;;;;;;;;;;;;;;17.89;68.48;99711.22;7356289;19;20019;-60
2023/10/22 10:14:54;;;;;;;0.10;0.10;;;;;;;17.93;62.85;99705.69;7354558;19;19923;-59
2023/10/22 10:17:20;;;;;;;0.10;0.10;;;;;;;18.04;62.64;99708.44;7365266;19;20286;-60
2023/10/22 10:19:49;;;;;;;0.10;0.10;;;;;;;18.24;62.04;99718.47;7362527;19;20003;-59
2023/10/22 10:22:38;;;;;;;0.10;0.10;;;;;;;18.51;65.14;99717.50;7356926;19;20111;-60
2023/10/22 10:25:32;;;;;;;0.10;0.10;;;;;;;18.64;64.25;99728.84;7360910;19;20006;-60
2023/10/22 10:28:08;;;;;;;0.10;0.10;;;;;;;18.64;63.90;99705.06;7361513;19;20015;-60
2023/10/22 10:30:35;;;;;;;0.10;0.10;;;;;;;18.76;61.33;99721.91;7358610;19;20006;-60
2023/10/22 10:33:00;;;;;;;0.10;0.10;;;;;;;18.88;61.32;99711.25;7361409;19;20014;-59
2023/10/22 10:35:27;;;;;;;0.10;0.10;;;;;;;19.07;61.56;99720.50;7358877;19;20011;-60
2023/10/22 10:38:14;;;;;;;0.10;0.10;;;;;;;19.41;64.37;99729.41;7360074;19;20021;-60
2023/10/22 10:40:51;;;;;;;0.10;0.10;;;;;;;19.61;63.62;99725.31;7360227;19;20011;-60
2023/10/22 10:43:18;;;;;;;0.10;0.10;;;;;;;19.68;60.69;99721.25;7364942;19;20842;-60
2023/10/22 10:46:20;;;;;;;0.10;0.10;;;;;;;20.11;64.05;99731.19;7362570;19;20494;-60
2023/10/22 10:48:49;;;;;;;0.10;0.10;;;;;;;20.23;60.14;99738.19;7356953;19;20920;-60
2023/10/22 10:51:17;;;;;;;0.10;0.10;;;;;;;20.50;59.97;99744.97;7360466;19;20062;-60
2023/10/22 10:54:01;;;;;;;0.10;0.10;;;;;;;20.88;63.05;99740.09;7360549;19;20022;-60
2023/10/22 10:56:48;;;;;;;0.10;0.10;;;;;;;21.15;62.86;99744.13;7358956;19;20127;-60
2023/10/22 10:59:36;;;;;;;0.10;0.10;;;;;;;21.37;62.41;99736.09;7353962;19;20489;-60
2023/10/22 11:02:03;;;;;;;0.10;0.10;;;;;;;21.40;58.28;99741.16;7350988;19;20800;-60
2023/10/22 11:04:30;;;;;;;0.10;0.10;;;;;;;21.54;57.86;99725.88;7353853;19;20025;-60
2023/10/22 11:06:56;;;;;;;0.10;0.10;;;;;;;21.81;58.03;99743.97;7363479;19;20058;-59
2023/10/22 11:09:21;;;;;;;0.10;0.10;;;;;;;21.96;58.11;99743.53;7362760;19;20451;-60
2023/10/22 11:12:03;;;;;;;0.20;0.20;;;;;;;22.36;60.79;99745.44;7365235;19;20025;-60
2023/10/22 11:14:34;;;;;;;0.10;0.10;;;;;;;22.49;59.30;99751.34;7346563;19;20815;-60
2023/10/22 11:16:59;;;;;;;0.10;0.10;;;;;;;22.54;57.74;99733.16;7341629;19;20570;-60
2023/10/22 11:19:27;;;;;;;0.10;0.10;;;;;;;22.78;57.71;99739.97;7364886;19;20014;-60
2023/10/22 11:21:54;;;;;;;;;;;;;;;23.31;63.70;99742.31;7351967;19;20014;-60
2023/10/22 11:24:23;;;;;;;0.10;0.10;;;;;;;23.30;57.32;99735.31;7340141;19;19935;-60
2023/10/22 11:26:50;;;;;;;0.10;0.10;;;;;;;23.60;56.17;99741.47;7362310;19;20034;-60
2023/10/22 11:29:15;;;;;;;0.10;0.10;;;;;;;23.75;56.31;99743.59;7363526;19;20468;-60
2023/10/22 11:31:55;;;;;;;0.10;0.10;;;;;;;24.09;59.23;99743.09;7360619;19;20015;-60
2023/10/22 11:34:20;;;;;;;0.10;0.10;;;;;;;24.10;55.95;99743.94;7372570;19;20014;-60
2023/10/22 11:36:46;;;;;;;0.10;0.10;;;;;;;24.25;56.40;99747.81;7366381;19;20009;-60
2023/10/22 11:39:19;;;;;;;0.10;0.10;;;;;;;24.52;58.51;99745.22;7363026;19;20010;-60
2023/10/22 11:41:45;;;;;;;0.10;0.10;;;;;;;24.59;55.43;99746.31;7360185;19;20007;-60